createdAt,value
2023-02-27T00:01:41.201Z,2.30
2023-02-27T00:03:46.564Z,2.50
2023-02-27T00:05:51.795Z,1.92
2023-02-27T00:07:56.654Z,1.70
2023-02-27T00:10:01.609Z,2.10
2023-02-27T00:12:07.843Z,1.90
2023-02-27T00:14:12.775Z,2.15
2023-02-27T00:16:17.640Z,2.10
2023-02-27T00:18:25.329Z,2.08
2023-02-27T00:20:37.843Z,2.03
2023-02-27T00:22:43.746Z,2.15
2023-02-27T00:24:48.543Z,1.90
2023-02-27T00:26:55.678Z,2.17
2023-02-27T00:29:00.581Z,1.95
2023-02-27T00:31:05.492Z,1.77
2023-02-27T00:33:10.648Z,2.28
2023-02-27T00:35:18.172Z,2.00
2023-02-27T00:37:22.948Z,1.95
2023-02-27T00:39:27.970Z,2.83
2023-02-27T00:41:32.756Z,2.20
2023-02-27T00:43:37.571Z,2.58
2023-02-27T00:45:42.386Z,2.20
2023-02-27T00:47:47.223Z,1.83
2023-02-27T00:49:55.819Z,2.00
2023-02-27T00:52:03.276Z,2.05
2023-02-27T00:54:09.646Z,2.30
2023-02-27T00:56:15.091Z,1.83
2023-02-27T00:58:19.955Z,2.22
2023-02-27T01:00:26.116Z,2.13
2023-02-27T01:02:32.005Z,2.03
2023-02-27T01:04:37.049Z,2.20
2023-02-27T01:06:41.906Z,2.30
2023-02-27T01:08:49.333Z,2.13
2023-02-27T01:10:54.087Z,2.28
2023-02-27T01:12:59.061Z,2.15
2023-02-27T01:15:04.495Z,2.13
2023-02-27T01:17:09.468Z,1.75
2023-02-27T01:19:17.131Z,1.90
2023-02-27T01:21:22.098Z,1.83
2023-02-27T01:23:26.848Z,1.85
2023-02-27T01:25:34.861Z,1.95
2023-02-27T01:27:39.894Z,1.83
2023-02-27T01:31:49.384Z,2.03
2023-02-27T01:33:54.521Z,2.20
2023-02-27T01:38:05.241Z,2.15
2023-02-27T01:40:11.658Z,1.90
2023-02-27T01:42:25.292Z,1.98
2023-02-27T01:44:31.719Z,2.20
2023-02-27T01:46:37.394Z,2.00
2023-02-27T01:48:45.253Z,2.17
2023-02-27T01:50:56.234Z,1.85
2023-02-27T01:53:03.945Z,2.05
2023-02-27T01:55:12.893Z,1.60
2023-02-27T01:57:18.010Z,1.90
2023-02-27T02:01:32.013Z,1.67
2023-02-27T02:03:44.276Z,1.77
2023-02-27T02:05:49.989Z,1.73
2023-02-27T02:07:56.055Z,2.00
2023-02-27T02:10:02.909Z,1.98
2023-02-27T02:12:09.277Z,1.70
2023-02-27T02:14:14.169Z,2.17
2023-02-27T02:16:40.492Z,1.77
2023-02-27T02:18:56.787Z,1.73
2023-02-27T02:21:39.162Z,1.77
2023-02-27T02:24:10.405Z,1.75
2023-02-27T02:26:38.176Z,2.15
2023-02-27T02:29:26.905Z,2.20
2023-02-27T02:32:01.967Z,2.10
2023-02-27T02:34:47.985Z,2.10
2023-02-27T02:37:32.411Z,1.80
2023-02-27T02:40:01.614Z,1.80
2023-02-27T02:42:12.502Z,1.92
2023-02-27T02:44:25.587Z,1.83
2023-02-27T02:46:38.580Z,2.10
2023-02-27T02:48:49.302Z,2.00
2023-02-27T02:51:04.728Z,1.75
2023-02-27T02:53:16.167Z,1.98
2023-02-27T02:55:29.588Z,1.80
2023-02-27T02:57:38.108Z,2.03
2023-02-27T02:59:50.796Z,2.42
2023-02-27T03:01:59.979Z,2.22
2023-02-27T03:04:12.799Z,2.33
2023-02-27T03:06:22.659Z,2.25
2023-02-27T03:08:31.428Z,2.45
2023-02-27T03:10:44.642Z,2.20
2023-02-27T03:12:55.200Z,1.98
2023-02-27T03:15:06.373Z,2.38
2023-02-27T03:17:18.133Z,2.70
2023-02-27T03:19:27.743Z,2.92
2023-02-27T03:21:38.243Z,3.22
2023-02-27T03:23:46.445Z,2.70
2023-02-27T03:25:58.179Z,2.35
2023-02-27T03:28:07.933Z,2.10
2023-02-27T03:30:16.013Z,1.95
2023-02-27T03:32:24.664Z,2.17
2023-02-27T03:34:33.196Z,2.22
2023-02-27T03:36:47.368Z,2.08
2023-02-27T03:38:58.539Z,2.05
2023-02-27T03:41:12.609Z,2.10
2023-02-27T03:43:33.687Z,1.98
2023-02-27T03:45:46.965Z,2.42
2023-02-27T03:47:52.162Z,2.10
2023-02-27T03:52:02.048Z,1.85
2023-02-27T03:54:11.327Z,2.50
2023-02-27T03:56:23.591Z,1.80
2023-02-27T03:58:28.906Z,1.83
2023-02-27T04:00:34.629Z,2.78
2023-02-27T04:02:39.897Z,2.50
2023-02-27T04:04:44.872Z,2.45
2023-02-27T04:07:09.002Z,2.05
2023-02-27T04:09:24.393Z,2.10
2023-02-27T04:11:46.080Z,3.10
2023-02-27T04:14:03.171Z,2.53
2023-02-27T04:16:23.888Z,2.30
2023-02-27T04:18:41.679Z,1.92
2023-02-27T04:20:51.180Z,2.25
2023-02-27T04:23:02.690Z,1.92
2023-02-27T04:25:25.454Z,1.80
2023-02-27T04:27:41.037Z,1.83
2023-02-27T04:29:56.813Z,2.72
2023-02-27T04:32:05.220Z,1.92
2023-02-27T04:34:17.541Z,2.00
2023-02-27T04:36:28.602Z,2.45
2023-02-27T04:38:39.083Z,1.58
2023-02-27T04:40:50.454Z,1.90
2023-02-27T04:43:03.669Z,2.55
2023-02-27T04:45:15.317Z,2.10
2023-02-27T04:47:21.946Z,2.65
2023-02-27T04:49:30.949Z,2.90
2023-02-27T04:51:41.494Z,2.20
2023-02-27T04:53:51.970Z,1.85
2023-02-27T04:56:00.359Z,2.75
2023-02-27T04:58:13.215Z,2.22
2023-02-27T05:00:22.217Z,2.20
2023-02-27T05:02:31.379Z,2.13
2023-02-27T05:04:40.388Z,2.33
2023-02-27T05:06:47.598Z,2.20
2023-02-27T05:08:59.589Z,2.20
2023-02-27T05:11:10.949Z,2.40
2023-02-27T05:13:21.918Z,2.58
2023-02-27T05:15:31.193Z,2.50
2023-02-27T05:17:39.900Z,2.30
2023-02-27T05:19:46.292Z,2.45
2023-02-27T05:21:59.786Z,3.17
2023-02-27T05:24:14.600Z,3.38
2023-02-27T05:26:23.741Z,3.03
2023-02-27T05:28:38.919Z,3.38
2023-02-27T05:30:51.358Z,2.80
2023-02-27T05:33:00.341Z,2.97
2023-02-27T05:35:13.784Z,2.50
2023-02-27T05:37:23.273Z,2.65
2023-02-27T05:39:31.103Z,2.75
2023-02-27T05:41:40.105Z,3.00
2023-02-27T05:43:51.934Z,2.97
2023-02-27T05:46:02.593Z,3.00
2023-02-27T05:48:11.651Z,3.03
2023-02-27T05:50:20.308Z,3.60
2023-02-27T05:52:29.553Z,3.00
2023-02-27T05:54:39.132Z,3.28
2023-02-27T05:56:48.705Z,2.70
2023-02-27T05:59:01.129Z,2.97
2023-02-27T06:01:09.328Z,3.00
2023-02-27T06:03:14.728Z,3.28
2023-02-27T06:05:22.728Z,4.22
2023-02-27T06:07:27.558Z,2.97
2023-02-27T06:09:32.388Z,3.00
2023-02-27T06:11:37.284Z,3.15
2023-02-27T06:13:42.662Z,3.10
2023-02-27T06:15:50.101Z,3.20
2023-02-27T06:17:55.057Z,2.83
2023-02-27T06:19:59.933Z,2.88
2023-02-27T06:22:04.850Z,3.20
2023-02-27T06:24:09.942Z,3.40
2023-02-27T06:26:15.803Z,2.97
2023-02-27T06:28:20.627Z,3.28
2023-02-27T06:30:25.500Z,3.22
2023-02-27T06:32:32.967Z,3.43
2023-02-27T06:34:37.775Z,3.72
2023-02-27T06:36:43.106Z,3.08
2023-02-27T06:38:48.406Z,3.60
2023-02-27T06:40:53.923Z,3.08
2023-02-27T06:42:58.701Z,3.30
2023-02-27T06:45:03.448Z,3.53
2023-02-27T06:47:08.365Z,3.33
2023-02-27T06:51:20.451Z,4.70
2023-02-27T06:53:26.452Z,5.35
2023-02-27T06:55:31.249Z,3.67
2023-02-27T06:57:36.250Z,3.92
2023-02-27T06:59:42.002Z,4.28
2023-02-27T07:01:46.878Z,3.90
2023-02-27T07:03:51.604Z,4.43
2023-02-27T07:05:59.671Z,4.68
2023-02-27T07:08:05.276Z,4.05
2023-02-27T07:10:13.996Z,4.50
2023-02-27T07:12:18.762Z,3.88
2023-02-27T07:14:23.817Z,3.67
2023-02-27T07:16:29.001Z,3.45
2023-02-27T07:18:34.021Z,3.30
2023-02-27T07:20:38.916Z,3.67
2023-02-27T07:22:46.357Z,4.07
2023-02-27T07:24:51.184Z,3.30
2023-02-27T07:26:56.548Z,3.45
2023-02-27T07:29:01.331Z,3.72
2023-02-27T07:31:06.249Z,4.07
2023-02-27T07:33:11.259Z,4.32
2023-02-27T07:37:20.630Z,4.15
2023-02-27T07:39:29.619Z,3.50
2023-02-27T07:41:34.455Z,4.07
2023-02-27T07:43:39.289Z,3.88
2023-02-27T07:45:44.084Z,4.10
2023-02-27T07:47:49.598Z,3.40
2023-02-27T07:49:56.481Z,3.65
2023-02-27T07:52:01.387Z,3.25
2023-02-27T07:54:06.363Z,2.88
2023-02-27T07:56:14.048Z,2.75
2023-02-27T07:58:18.935Z,3.00
2023-02-27T08:00:24.141Z,2.70
2023-02-27T08:02:29.331Z,2.92
2023-02-27T08:06:38.772Z,3.13
2023-02-27T08:08:43.570Z,2.88
2023-02-27T08:10:48.391Z,2.40
2023-02-27T08:12:56.311Z,2.97
2023-02-27T08:15:01.162Z,2.60
2023-02-27T08:17:06.039Z,2.30
2023-02-27T08:19:10.811Z,2.38
2023-02-27T08:23:20.653Z,2.38
2023-02-27T08:25:25.837Z,2.45
2023-02-27T08:27:30.644Z,2.33
2023-02-27T08:29:38.148Z,2.45
2023-02-27T08:31:43.135Z,2.78
2023-02-27T08:33:49.623Z,2.47
2023-02-27T08:35:58.646Z,2.78
2023-02-27T08:40:10.996Z,2.40
2023-02-27T08:42:15.799Z,2.33
2023-02-27T08:44:20.661Z,2.13
2023-02-27T08:46:28.377Z,1.98
2023-02-27T08:48:33.389Z,2.00
2023-02-27T08:50:38.126Z,2.22
2023-02-27T08:52:42.896Z,1.67
2023-02-27T08:54:47.657Z,2.22
2023-02-27T08:56:52.412Z,2.72
2023-02-27T08:58:57.881Z,1.95
2023-02-27T09:01:02.808Z,2.25
2023-02-27T09:03:10.262Z,2.00
2023-02-27T09:05:15.084Z,2.30
2023-02-27T09:07:19.921Z,2.20
2023-02-27T09:09:25.488Z,2.17
2023-02-27T09:11:30.895Z,2.47
2023-02-27T09:13:35.921Z,2.15
2023-02-27T09:15:40.725Z,2.20
2023-02-27T09:17:45.554Z,2.20
2023-02-27T09:19:54.446Z,2.30
2023-02-27T09:22:00.704Z,2.05
2023-02-27T09:24:17.582Z,2.00
2023-02-27T09:26:39.719Z,1.55
2023-02-27T09:28:47.248Z,2.38
2023-02-27T09:30:52.141Z,2.53
2023-02-27T09:32:57.488Z,2.00
2023-02-27T09:35:04.873Z,1.77
2023-02-27T09:37:09.678Z,1.90
2023-02-27T09:39:14.540Z,1.70
2023-02-27T09:41:35.613Z,1.92
2023-02-27T09:43:47.032Z,1.70
2023-02-27T09:45:56.174Z,2.88
2023-02-27T09:48:06.618Z,1.73
2023-02-27T09:50:27.726Z,1.73
2023-02-27T09:52:34.757Z,1.63
2023-02-27T09:54:39.563Z,1.80
2023-02-27T09:56:50.878Z,1.70
2023-02-27T09:59:03.878Z,2.60
2023-02-27T10:01:15.877Z,2.08
2023-02-27T10:03:41.741Z,1.70
2023-02-27T10:06:01.493Z,1.67
2023-02-27T10:08:13.212Z,1.58
2023-02-27T10:10:27.641Z,1.30
2023-02-27T10:12:49.211Z,1.58
2023-02-27T10:15:00.164Z,1.40
2023-02-27T10:17:08.812Z,1.40
2023-02-27T10:19:19.017Z,1.15
2023-02-27T10:21:32.201Z,1.92
2023-02-27T10:23:42.915Z,1.73
2023-02-27T10:25:52.175Z,1.95
2023-02-27T10:28:01.373Z,1.75
2023-02-27T10:30:29.595Z,1.35
2023-02-27T10:32:38.168Z,1.23
2023-02-27T10:34:45.186Z,1.40
2023-02-27T10:36:52.806Z,1.42
2023-02-27T10:39:04.416Z,2.05
2023-02-27T10:41:13.290Z,1.38
2023-02-27T10:43:19.994Z,1.40
2023-02-27T10:45:24.863Z,1.67
2023-02-27T10:47:29.896Z,1.20
2023-02-27T10:49:36.380Z,1.38
2023-02-27T10:51:41.172Z,1.52
2023-02-27T10:53:48.546Z,1.30
2023-02-27T10:56:03.270Z,1.73
2023-02-27T10:58:08.714Z,1.60
2023-02-27T11:00:26.101Z,1.55
2023-02-27T11:02:37.023Z,1.60
2023-02-27T11:04:43.290Z,1.52
2023-02-27T11:06:55.162Z,1.60
2023-02-27T11:09:22.362Z,1.50
2023-02-27T11:11:31.049Z,1.60
2023-02-27T11:13:38.227Z,1.50
2023-02-27T11:15:43.313Z,1.60
2023-02-27T11:17:48.107Z,1.35
2023-02-27T11:19:52.857Z,1.13
2023-02-27T11:22:09.125Z,1.52
2023-02-27T11:24:23.505Z,1.70
2023-02-27T11:26:36.367Z,1.27
2023-02-27T11:28:41.237Z,1.73
2023-02-27T11:30:46.608Z,1.38
2023-02-27T11:32:52.628Z,1.23
2023-02-27T11:35:00.481Z,1.10
2023-02-27T11:37:09.010Z,1.30
2023-02-27T11:39:29.193Z,1.17
2023-02-27T11:41:36.173Z,1.65
2023-02-27T11:43:49.978Z,1.40
2023-02-27T11:46:04.228Z,1.17
2023-02-27T11:48:13.929Z,1.38
2023-02-27T11:50:40.588Z,1.20
2023-02-27T11:52:52.956Z,1.58
2023-02-27T11:55:03.461Z,1.05
2023-02-27T11:57:17.240Z,1.33
2023-02-27T11:59:41.890Z,1.33
2023-02-27T12:01:52.214Z,1.20
2023-02-27T12:04:04.598Z,2.03
2023-02-27T12:06:17.768Z,1.70
2023-02-27T12:08:32.688Z,1.90
2023-02-27T12:10:50.174Z,1.63
2023-02-27T12:13:01.875Z,1.42
2023-02-27T12:15:18.304Z,1.30
2023-02-27T12:17:28.881Z,1.27
2023-02-27T12:19:41.572Z,2.83
2023-02-27T12:21:50.371Z,1.60
2023-02-27T12:24:00.917Z,2.13
2023-02-27T12:26:14.713Z,1.73
2023-02-27T12:28:34.265Z,1.88
2023-02-27T12:30:44.983Z,2.75
2023-02-27T12:32:57.404Z,3.50
2023-02-27T12:35:08.401Z,4.30
2023-02-27T12:37:16.435Z,2.03
2023-02-27T12:39:23.485Z,1.23
2023-02-27T12:41:49.466Z,1.15
2023-02-27T12:44:03.304Z,1.25
2023-02-27T12:46:26.312Z,1.17
2023-02-27T12:48:48.327Z,1.20
2023-02-27T12:51:01.099Z,1.30
2023-02-27T12:53:22.574Z,1.95
2023-02-27T12:55:30.735Z,1.75
2023-02-27T12:57:54.153Z,1.40
2023-02-27T13:00:18.699Z,1.30
2023-02-27T13:02:41.907Z,1.52
2023-02-27T13:04:49.409Z,1.20
2023-02-27T13:07:02.275Z,2.10
2023-02-27T13:09:18.979Z,1.40
2023-02-27T13:11:32.251Z,1.48
2023-02-27T13:13:58.800Z,1.90
2023-02-27T13:16:08.258Z,1.50
2023-02-27T13:18:45.591Z,1.45
2023-02-27T13:20:56.576Z,2.13
2023-02-27T13:23:09.248Z,1.30
2023-02-27T13:25:17.301Z,1.20
2023-02-27T13:27:28.699Z,1.15
2023-02-27T13:29:45.262Z,1.60
2023-02-27T13:32:00.181Z,2.63
2023-02-27T13:34:17.342Z,1.65
2023-02-27T13:36:27.776Z,2.15
2023-02-27T13:38:35.407Z,2.25
2023-02-27T13:40:42.753Z,1.38
2023-02-27T13:43:01.937Z,1.33
2023-02-27T13:45:44.636Z,1.25
2023-02-27T13:47:51.797Z,1.38
2023-02-27T13:49:58.133Z,1.02
2023-02-27T13:52:04.226Z,1.83
2023-02-27T13:54:24.425Z,2.25
2023-02-27T13:56:29.402Z,1.38
2023-02-27T13:58:34.248Z,1.20
2023-02-27T14:00:41.930Z,1.70
2023-02-27T14:03:00.006Z,1.10
2023-02-27T14:05:09.154Z,1.27
2023-02-27T14:07:18.720Z,0.93
2023-02-27T14:09:25.683Z,1.25
2023-02-27T14:11:34.523Z,1.20
2023-02-27T14:14:08.147Z,1.00
2023-02-27T14:16:36.160Z,2.10
2023-02-27T14:19:00.035Z,1.38
2023-02-27T14:21:04.939Z,1.08
2023-02-27T14:23:27.388Z,1.40
2023-02-27T14:25:38.034Z,1.40
2023-02-27T14:27:52.423Z,1.30
2023-02-27T14:30:01.480Z,1.15
2023-02-27T14:32:09.717Z,1.27
2023-02-27T14:34:18.920Z,1.42
2023-02-27T14:36:25.335Z,1.75
2023-02-27T14:38:31.978Z,1.20
2023-02-27T14:40:42.719Z,1.00
2023-02-27T14:42:54.653Z,1.20
2023-02-27T14:44:59.699Z,1.20
2023-02-27T14:49:22.740Z,1.33
2023-02-27T14:51:30.604Z,1.08
2023-02-27T14:53:37.656Z,1.10
2023-02-27T14:55:42.568Z,1.50
2023-02-27T14:57:57.535Z,1.23
2023-02-27T15:00:02.824Z,1.52
2023-02-27T15:02:18.697Z,1.67
2023-02-27T15:04:31.754Z,1.30
2023-02-27T15:06:39.994Z,1.40
2023-02-27T15:08:48.580Z,1.40
2023-02-27T15:10:55.131Z,1.60
2023-02-27T15:13:00.700Z,1.35
2023-02-27T15:15:09.868Z,1.45
2023-02-27T15:17:19.755Z,1.52
2023-02-27T15:19:25.795Z,1.25
2023-02-27T15:21:35.862Z,1.95
2023-02-27T15:23:40.723Z,2.33
2023-02-27T15:25:45.718Z,1.83
2023-02-27T15:27:50.580Z,2.45
2023-02-27T15:29:58.125Z,9.07
2023-02-27T15:32:03.352Z,5.20
2023-02-27T15:36:23.644Z,3.50
2023-02-27T15:38:33.778Z,3.90
2023-02-27T15:40:38.857Z,3.50
2023-02-27T15:44:53.439Z,4.90
2023-02-27T15:46:59.655Z,3.35
2023-02-27T15:49:04.876Z,1.63
2023-02-27T15:53:22.209Z,1.38
2023-02-27T15:55:32.863Z,1.27
2023-02-27T15:57:37.754Z,1.60
2023-02-27T15:59:45.026Z,1.77
2023-02-27T16:01:52.377Z,2.53
2023-02-27T16:03:59.231Z,1.80
2023-02-27T16:06:12.909Z,1.80
2023-02-27T16:08:21.231Z,1.77
2023-02-27T16:10:34.129Z,1.67
2023-02-27T16:13:04.053Z,1.67
2023-02-27T16:15:27.724Z,1.48
2023-02-27T16:17:40.161Z,4.22
2023-02-27T16:19:47.220Z,2.75
2023-02-27T16:22:09.343Z,3.53
2023-02-27T16:24:24.524Z,3.63
2023-02-27T16:26:36.697Z,2.58
2023-02-27T16:28:47.890Z,2.05
2023-02-27T16:30:56.835Z,2.20
2023-02-27T16:33:03.868Z,3.15
2023-02-27T16:35:18.392Z,2.90
2023-02-27T16:37:25.020Z,2.40
2023-02-27T16:39:30.554Z,2.95
2023-02-27T16:41:38.003Z,3.15
2023-02-27T16:43:45.090Z,2.67
2023-02-27T16:45:56.103Z,3.25
2023-02-27T16:48:02.999Z,4.05
2023-02-27T16:50:13.052Z,6.30
2023-02-27T16:52:17.889Z,5.07
2023-02-27T16:54:28.460Z,4.53
2023-02-27T16:56:38.390Z,4.57
2023-02-27T16:58:46.038Z,4.88
2023-02-27T17:00:50.898Z,3.58
2023-02-27T17:02:55.810Z,3.30
2023-02-27T17:05:00.600Z,3.10
2023-02-27T17:07:06.994Z,3.03
2023-02-27T17:09:12.518Z,3.60
2023-02-27T17:11:17.373Z,4.38
2023-02-27T17:13:22.136Z,2.97
2023-02-27T17:15:30.110Z,3.72
2023-02-27T17:17:34.918Z,3.95
2023-02-27T17:19:39.972Z,3.97
2023-02-27T17:21:44.927Z,3.70
2023-02-27T17:23:49.989Z,4.03
2023-02-27T17:25:56.124Z,4.50
2023-02-27T17:28:01.174Z,4.85
2023-02-27T17:30:06.232Z,4.38
2023-02-27T17:34:18.690Z,4.22
2023-02-27T17:36:25.024Z,4.10
2023-02-27T17:38:29.864Z,3.67
2023-02-27T17:40:34.877Z,3.55
2023-02-27T17:42:39.989Z,3.70
2023-02-27T17:46:49.912Z,3.53
2023-02-27T17:49:00.752Z,3.85
2023-02-27T17:51:09.864Z,3.00
2023-02-27T17:53:15.742Z,3.25
2023-02-27T17:55:20.584Z,3.22
2023-02-27T17:57:25.517Z,3.97
2023-02-27T17:59:30.241Z,3.17
2023-02-27T18:01:38.057Z,5.45
2023-02-27T18:03:44.308Z,4.40
2023-02-27T18:05:56.070Z,4.43
2023-02-27T18:08:00.809Z,4.10
2023-02-27T18:10:06.189Z,6.10
2023-02-27T18:12:11.044Z,4.72
2023-02-27T18:14:15.904Z,3.70
2023-02-27T18:16:22.101Z,5.72
2023-02-27T18:18:27.597Z,8.55
2023-02-27T18:20:32.542Z,4.70
2023-02-27T18:22:39.970Z,4.80
2023-02-27T18:24:44.730Z,5.32
2023-02-27T18:26:49.593Z,5.40
2023-02-27T18:28:54.525Z,4.70
2023-02-27T18:30:59.513Z,6.03
2023-02-27T18:33:04.322Z,4.88
2023-02-27T18:35:09.512Z,6.13
2023-02-27T18:39:24.348Z,6.38
2023-02-27T18:41:30.124Z,5.80
2023-02-27T18:43:36.041Z,3.92
2023-02-27T18:45:40.960Z,3.22
2023-02-27T18:47:45.753Z,3.22
2023-02-27T18:49:51.281Z,3.75
2023-02-27T18:51:56.106Z,3.60
2023-02-27T18:54:01.249Z,4.15
2023-02-27T18:58:14.514Z,3.60
2023-02-27T19:00:21.757Z,3.40
2023-02-27T19:02:26.948Z,3.65
2023-02-27T19:04:35.442Z,3.90
2023-02-27T19:06:43.126Z,3.60
2023-02-27T19:08:48.886Z,4.53
2023-02-27T19:10:53.701Z,4.30
2023-02-27T19:13:01.224Z,4.80
2023-02-27T19:15:06.433Z,7.25
2023-02-27T19:17:11.232Z,5.55
2023-02-27T19:19:16.121Z,5.35
2023-02-27T19:21:21.014Z,5.97
2023-02-27T19:23:25.753Z,5.55
2023-02-27T19:25:30.583Z,5.82
2023-02-27T19:27:38.110Z,6.40
2023-02-27T19:29:45.580Z,5.55
2023-02-27T19:31:50.529Z,5.40
2023-02-27T19:33:55.618Z,5.22
2023-02-27T19:36:01.057Z,4.88
2023-02-27T19:38:06.130Z,5.65
2023-02-27T19:40:13.557Z,4.95
2023-02-27T19:42:21.453Z,4.70
2023-02-27T19:44:26.607Z,5.03
2023-02-27T19:48:41.337Z,4.90
2023-02-27T19:50:46.165Z,6.30
2023-02-27T19:52:50.938Z,5.18
2023-02-27T19:54:56.381Z,10.23
2023-02-27T19:57:01.233Z,5.22
2023-02-27T19:59:06.036Z,5.63
2023-02-27T20:01:11.284Z,5.20
2023-02-27T20:05:25.951Z,5.65
2023-02-27T20:07:32.301Z,5.28
2023-02-27T20:09:37.170Z,4.35
2023-02-27T20:11:41.982Z,4.72
2023-02-27T20:13:46.859Z,5.32
2023-02-27T20:15:58.557Z,4.45
2023-02-27T20:18:03.426Z,3.65
2023-02-27T20:20:12.617Z,4.25
2023-02-27T20:22:17.466Z,4.55
2023-02-27T20:24:22.562Z,4.35
2023-02-27T20:28:34.546Z,4.57
2023-02-27T20:30:39.396Z,4.03
2023-02-27T20:32:46.215Z,3.92
2023-02-27T20:34:51.228Z,4.45
2023-02-27T20:37:00.344Z,3.95
2023-02-27T20:39:06.695Z,4.25
2023-02-27T20:41:13.606Z,3.40
2023-02-27T20:43:20.642Z,3.47
2023-02-27T20:45:25.496Z,3.63
2023-02-27T20:47:30.341Z,3.90
2023-02-27T20:49:37.970Z,3.38
2023-02-27T20:51:43.322Z,3.58
2023-02-27T20:53:52.853Z,3.83
2023-02-27T20:55:57.741Z,3.97
2023-02-27T20:58:02.658Z,3.72
2023-02-27T21:00:12.326Z,4.05
2023-02-27T21:02:17.194Z,3.90
2023-02-27T21:04:23.911Z,3.50
2023-02-27T21:06:30.514Z,4.10
2023-02-27T21:08:38.708Z,3.90
2023-02-27T21:10:46.688Z,3.90
2023-02-27T21:12:51.548Z,4.20
2023-02-27T21:14:56.465Z,3.95
2023-02-27T21:17:01.725Z,4.50
2023-02-27T21:21:14.694Z,4.60
2023-02-27T21:23:19.459Z,4.38
2023-02-27T21:25:24.333Z,4.68
2023-02-27T21:27:31.822Z,4.05
2023-02-27T21:29:36.582Z,4.55
2023-02-27T21:31:45.194Z,3.92
2023-02-27T21:33:50.519Z,3.83
2023-02-27T21:35:55.389Z,4.45
2023-02-27T21:38:00.215Z,3.80
2023-02-27T21:40:05.117Z,4.03
2023-02-27T21:42:10.065Z,4.03
2023-02-27T21:44:19.494Z,3.83
2023-02-27T21:46:24.361Z,4.68
2023-02-27T21:48:29.168Z,4.65
2023-02-27T21:50:34.088Z,3.88
2023-02-27T21:52:38.876Z,3.50
2023-02-27T21:54:46.705Z,3.50
2023-02-27T21:56:53.975Z,4.03
2023-02-27T21:59:02.009Z,4.22
2023-02-27T22:01:15.864Z,6.75
2023-02-27T22:03:20.963Z,5.00
2023-02-27T22:07:30.490Z,4.95
2023-02-27T22:09:37.597Z,4.85
2023-02-27T22:11:42.689Z,5.03
2023-02-27T22:13:47.837Z,5.20
2023-02-27T22:17:59.815Z,5.25
2023-02-27T22:20:07.048Z,5.53
2023-02-27T22:22:11.946Z,4.50
2023-02-27T22:26:24.532Z,4.40
2023-02-27T22:28:29.333Z,4.38
2023-02-27T22:30:34.263Z,4.90
2023-02-27T22:36:53.328Z,4.85
2023-02-27T22:38:58.498Z,4.68
2023-02-27T22:43:11.313Z,4.15
2023-02-27T22:45:16.759Z,4.45
2023-02-27T22:47:21.567Z,4.10
2023-02-27T22:49:26.923Z,4.50
2023-02-27T22:51:34.659Z,3.97
2023-02-27T22:53:40.826Z,4.13
2023-02-27T22:55:45.581Z,3.95
2023-02-27T22:57:51.892Z,3.92
2023-02-27T22:59:56.686Z,4.60
2023-02-27T23:02:01.594Z,5.25
2023-02-27T23:04:08.580Z,4.68
2023-02-27T23:06:18.026Z,5.57
2023-02-27T23:08:25.395Z,4.68
2023-02-27T23:10:30.202Z,4.85
2023-02-27T23:12:34.997Z,5.80
2023-02-27T23:14:39.841Z,4.85
2023-02-27T23:16:46.113Z,5.10
2023-02-27T23:18:52.423Z,5.88
2023-02-27T23:20:57.580Z,5.30
2023-02-27T23:25:11.918Z,4.95
2023-02-27T23:27:25.704Z,4.43
2023-02-27T23:29:30.785Z,3.80
2023-02-27T23:31:38.971Z,4.47
2023-02-27T23:33:43.909Z,4.93
2023-02-27T23:35:49.175Z,4.25
2023-02-27T23:37:54.730Z,3.72
2023-02-27T23:39:59.562Z,4.50
2023-02-27T23:42:07.220Z,4.32
2023-02-27T23:44:24.524Z,3.88
2023-02-27T23:46:30.446Z,6.22
2023-02-27T23:48:35.872Z,3.95
2023-02-27T23:52:46.270Z,3.85
2023-02-27T23:54:51.081Z,4.85
2023-02-27T23:56:55.920Z,4.38
2023-02-27T23:59:05.758Z,3.63
